Time;durP1;ratioP1;P1;durP2;ratioP2;P2;SDS_P1;SDS_P2;PMS_P1;PMS_P2;Temp;Humidity;BMP_temperature;BMP_pressure;BME280_temperature;BME280_humidity;BME280_pressure;Samples;Min_cycle;Max_cycle;Signal;HPM_P1;HPM_P2
2022/02/28 00:01:07;;;;;;;55.03;52.10;;;3.10;99.90;;;;;;4376594;32;20492;-62
2022/02/28 00:03:39;;;;;;;61.70;58.43;;;3.10;99.90;;;;;;4373853;32;20141;-63
2022/02/28 00:06:18;;;;;;;58.17;54.67;;;3.20;99.90;;;;;;4371082;32;20221;-61
2022/02/28 00:09:04;;;;;;;55.87;53.07;;;3.10;99.90;;;;;;4375323;32;20210;-62
2022/02/28 00:11:41;;;;;;;56.77;53.57;;;3.10;99.90;;;;;;4375325;32;20220;-62
2022/02/28 00:14:08;;;;;;;58.27;55.23;;;3.00;99.90;;;;;;4376593;32;20206;-63
2022/02/28 00:16:39;;;;;;;58.37;55.33;;;3.00;99.90;;;;;;4374887;32;20203;-62
2022/02/28 00:19:17;;;;;;;55.27;52.07;;;3.00;99.90;;;;;;4375059;32;20206;-64
2022/02/28 00:21:46;;;;;;;62.10;58.87;;;3.00;99.90;;;;;;4374995;32;20493;-62
2022/02/28 00:24:16;;;;;;;59.40;55.90;;;3.10;99.90;;;;;;4374317;32;20151;-62
2022/02/28 00:26:48;;;;;;;66.87;63.43;;;3.00;99.90;;;;;;4375879;32;20155;-64
2022/02/28 00:29:22;;;;;;;57.87;54.83;;;2.90;99.90;;;;;;4390271;32;20158;-62
2022/02/28 00:31:51;;;;;;;55.03;52.13;;;2.90;99.90;;;;;;4391463;32;20663;-62
2022/02/28 00:34:32;;;;;;;60.00;57.00;;;2.90;99.90;;;;;;4387008;32;20188;-63
2022/02/28 00:37:02;;;;;;;59.93;56.53;;;2.90;99.90;;;;;;4375224;32;20145;-63
2022/02/28 00:39:33;;;;;;;61.77;58.47;;;2.80;99.90;;;;;;4375186;32;20161;-64
2022/02/28 00:42:02;;;;;;;64.50;61.10;;;2.80;99.90;;;;;;4376577;32;20475;-63
2022/02/28 00:44:38;;;;;;;58.57;55.47;;;2.80;99.90;;;;;;4377093;32;20157;-63
2022/02/28 00:47:08;;;;;;;62.17;58.90;;;2.80;99.90;;;;;;4377785;32;20161;-63
2022/02/28 00:49:40;;;;;;;62.40;59.27;;;2.80;99.90;;;;;;4377818;32;20170;-62
2022/02/28 00:52:12;;;;;;;59.37;56.30;;;2.80;99.90;;;;;;4377924;32;20152;-62
2022/02/28 00:54:49;;;;;;;65.10;61.97;;;2.80;99.90;;;;;;4378441;32;20221;-62
2022/02/28 00:57:18;;;;;;;57.83;54.77;;;2.80;99.90;;;;;;4363958;32;20153;-63
2022/02/28 00:59:47;;;;;;;64.40;61.30;;;2.80;99.90;;;;;;4363418;32;20161;-63
2022/02/28 01:05:05;;;;;;;60.23;57.13;;;2.70;99.90;;;;;;4361307;33;20165;-61
2022/02/28 01:07:37;;;;;;;62.53;59.53;;;2.60;99.90;;;;;;4376940;32;20564;-61
2022/02/28 01:10:05;;;;;;;64.93;61.50;;;2.60;99.90;;;;;;4377502;32;20484;-61
2022/02/28 01:12:44;;;;;;;66.73;63.43;;;2.60;99.90;;;;;;4377934;32;20141;-61
2022/02/28 01:15:24;;;;;;;62.43;59.33;;;2.60;99.90;;;;;;4377274;32;20187;-63
2022/02/28 01:17:55;;;;;;;59.30;56.37;;;2.50;99.90;;;;;;4377375;32;20537;-60
2022/02/28 01:20:28;;;;;;;66.90;63.23;;;2.50;99.90;;;;;;4376330;32;20160;-62
2022/02/28 01:22:56;;;;;;;69.80;66.40;;;2.50;99.90;;;;;;4378361;32;20169;-63
2022/02/28 01:25:23;;;;;;;63.80;60.57;;;2.50;99.90;;;;;;4376697;32;20156;-61
2022/02/28 01:27:50;;;;;;;62.63;59.57;;;2.50;99.90;;;;;;4377357;32;20167;-63
2022/02/28 01:30:25;;;;;;;71.00;67.57;;;2.50;99.90;;;;;;4377294;32;20488;-63
2022/02/28 01:32:52;;;;;;;61.77;58.60;;;2.40;99.90;;;;;;4377678;32;20211;-62
2022/02/28 01:35:26;;;;;;;62.30;59.27;;;2.40;99.90;;;;;;4377158;32;20145;-61
2022/02/28 01:38:08;;;;;;;68.70;65.30;;;2.40;99.90;;;;;;4376309;32;20192;-63
2022/02/28 01:40:52;;;;;;;66.17;62.87;;;2.40;99.90;;;;;;4363681;32;20200;-61
2022/02/28 01:43:23;;;;;;;66.20;62.63;;;2.40;99.90;;;;;;4362356;32;20157;-62
2022/02/28 01:45:55;;;;;;;68.20;64.60;;;2.30;99.90;;;;;;4362064;32;20164;-61
2022/02/28 01:48:29;;;;;;;67.73;64.17;;;2.50;99.90;;;;;;4368766;32;20623;-61
2022/02/28 01:50:56;;;;;;;66.50;62.97;;;2.30;99.90;;;;;;4363463;32;20173;-61
2022/02/28 01:53:29;;;;;;;75.40;71.47;;;2.30;99.90;;;;;;4376929;32;20146;-61
2022/02/28 01:56:01;;;;;;;72.23;68.83;;;2.20;99.90;;;;;;4375778;32;20563;-61
2022/02/28 01:58:41;;;;;;;68.07;64.70;;;2.10;99.90;;;;;;4377540;32;20141;-62
2022/02/28 02:01:12;;;;;;;70.87;67.43;;;2.10;99.90;;;;;;4376530;32;20157;-62
2022/02/28 02:03:51;;;;;;;67.53;64.13;;;2.20;99.90;;;;;;4376763;32;20217;-62
2022/02/28 02:06:25;;;;;;;70.03;66.43;;;2.10;99.90;;;;;;4373794;32;20182;-62
2022/02/28 02:09:16;;;;;;;73.03;69.50;;;2.10;99.90;;;;;;4376688;32;20180;-61
2022/02/28 02:11:55;;;;;;;71.07;66.90;;;2.10;99.90;;;;;;4376637;32;20558;-62
2022/02/28 02:14:28;;;;;;;76.27;72.67;;;2.10;99.90;;;;;;4376101;32;20198;-62
2022/02/28 02:17:17;;;;;;;75.40;71.60;;;2.10;99.90;;;;;;4377582;32;20144;-61
2022/02/28 02:19:52;;;;;;;74.57;70.83;;;2.00;99.90;;;;;;4376406;32;20156;-62
2022/02/28 02:22:23;;;;;;;77.13;73.33;;;1.90;99.90;;;;;;4377100;32;20160;-61
2022/02/28 02:25:05;;;;;;;74.73;71.13;;;1.90;99.90;;;;;;4375903;32;20145;-63
2022/02/28 02:27:37;;;;;;;73.37;69.77;;;1.80;99.90;;;;;;4376068;32;20180;-62
2022/02/28 02:30:05;;;;;;;79.73;75.10;;;1.70;99.90;;;;;;4376168;32;20195;-62
2022/02/28 02:32:33;;;;;;;77.83;74.13;;;1.70;99.90;;;;;;4376204;32;20173;-62
2022/02/28 02:35:06;;;;;;;76.90;73.40;;;1.60;99.90;;;;;;4375032;32;20587;-62
2022/02/28 02:37:40;;;;;;;86.97;82.67;;;1.60;99.90;;;;;;4374293;32;20153;-60
2022/02/28 02:40:15;;;;;;;81.60;77.63;;;1.60;99.90;;;;;;4375974;32;20163;-62
2022/02/28 02:42:46;;;;;;;83.97;79.87;;;1.50;99.90;;;;;;4376049;32;20611;-61
2022/02/28 02:45:21;;;;;;;85.27;81.47;;;1.50;99.90;;;;;;4376858;32;20157;-61
2022/02/28 02:47:51;;;;;;;87.63;83.53;;;1.50;99.90;;;;;;4361122;33;20145;-61
2022/02/28 02:50:18;;;;;;;84.80;80.80;;;1.50;99.90;;;;;;4361026;33;20530;-61
2022/02/28 02:52:49;;;;;;;90.80;86.50;;;1.40;99.90;;;;;;4362332;32;20473;-61
2022/02/28 02:55:18;;;;;;;97.40;92.90;;;1.30;99.90;;;;;;4375842;32;20152;-62
2022/02/28 02:57:45;;;;;;;89.27;85.20;;;1.40;99.90;;;;;;4361490;32;20169;-63
2022/02/28 03:00:23;;;;;;;94.87;90.53;;;1.40;99.90;;;;;;4360942;32;20141;-61
2022/02/28 03:02:59;;;;;;;99.37;94.77;;;1.50;99.90;;;;;;4360995;32;20469;-62
2022/02/28 03:05:28;;;;;;;97.27;92.73;;;1.50;99.90;;;;;;4363007;32;20164;-62
2022/02/28 03:07:56;;;;;;;96.70;92.13;;;1.40;99.90;;;;;;4361416;32;20161;-61
2022/02/28 03:10:26;;;;;;;97.37;92.33;;;1.40;99.90;;;;;;4375204;32;20174;-62
2022/02/28 03:13:07;;;;;;;95.47;91.17;;;1.30;99.90;;;;;;4377304;32;20149;-61
2022/02/28 03:15:45;;;;;;;93.37;88.87;;;1.40;99.90;;;;;;4375581;32;20516;-61
2022/02/28 03:18:13;;;;;;;96.37;91.77;;;1.30;99.90;;;;;;4375601;32;20526;-61
2022/02/28 03:20:40;;;;;;;100.33;95.60;;;1.40;99.90;;;;;;4374702;32;20156;-61
2022/02/28 03:23:10;;;;;;;105.50;100.50;;;1.40;99.90;;;;;;4375516;32;20600;-61
2022/02/28 03:25:42;;;;;;;105.17;100.37;;;1.30;99.90;;;;;;4375797;32;20165;-62
2022/02/28 03:28:18;;;;;;;102.80;97.90;;;1.20;99.90;;;;;;4376560;32;20149;-61
2022/02/28 03:30:49;;;;;;;103.07;98.47;;;1.20;99.90;;;;;;4375081;32;20554;-62
2022/02/28 03:33:21;;;;;;;101.53;96.83;;;1.30;99.90;;;;;;4375655;32;20163;-62
2022/02/28 03:35:52;;;;;;;102.70;97.80;;;1.20;99.90;;;;;;4375497;32;20136;-62
2022/02/28 03:38:29;;;;;;;105.87;101.20;;;1.20;99.90;;;;;;4374941;32;20172;-62
2022/02/28 03:40:56;;;;;;;105.37;100.17;;;1.20;99.90;;;;;;4376047;32;20202;-62
2022/02/28 03:43:23;;;;;;;106.70;101.63;;;1.20;99.90;;;;;;4375448;32;20152;-61
2022/02/28 03:45:50;;;;;;;108.57;103.47;;;1.20;99.90;;;;;;4375463;32;20178;-62
2022/02/28 03:48:27;;;;;;;110.83;105.83;;;1.20;99.90;;;;;;4374454;32;20217;-62
2022/02/28 03:50:57;;;;;;;113.33;108.33;;;1.20;99.90;;;;;;4375601;32;20132;-62
2022/02/28 03:53:30;;;;;;;115.33;110.27;;;1.20;99.90;;;;;;4375687;32;20145;-61
2022/02/28 03:56:01;;;;;;;117.03;111.60;;;1.10;99.90;;;;;;4379241;32;20151;-61
2022/02/28 03:58:37;;;;;;;115.10;110.10;;;1.10;99.90;;;;;;4378102;32;20140;-62
2022/02/28 04:01:09;;;;;;;117.50;112.33;;;1.10;99.90;;;;;;4374701;32;20144;-61
2022/02/28 04:03:38;;;;;;;118.33;112.67;;;1.20;99.90;;;;;;4373498;32;20160;-61
2022/02/28 04:06:08;;;;;;;125.27;119.90;;;1.10;99.90;;;;;;4375235;32;20176;-62
2022/02/28 04:08:36;;;;;;;126.80;121.03;;;1.10;99.90;;;;;;4376253;32;20491;-61
2022/02/28 04:11:10;;;;;;;125.07;119.67;;;1.10;99.90;;;;;;4375209;32;20159;-61
2022/02/28 04:13:43;;;;;;;134.03;128.10;;;1.10;99.90;;;;;;4375510;32;20141;-62
2022/02/28 04:16:10;;;;;;;131.90;126.03;;;1.10;99.90;;;;;;4375019;32;20164;-62
2022/02/28 04:18:48;;;;;;;138.63;132.47;;;1.00;99.90;;;;;;4376445;32;20148;-60
2022/02/28 04:21:23;;;;;;;136.50;130.57;;;1.10;99.90;;;;;;4372115;32;20147;-62
2022/02/28 04:23:54;;;;;;;137.37;131.13;;;1.00;99.90;;;;;;4378596;32;20676;-61
2022/02/28 04:26:34;;;;;;;139.33;132.97;;;1.00;99.90;;;;;;4379838;32;20529;-60
2022/02/28 04:29:04;;;;;;;147.50;141.20;;;1.00;99.90;;;;;;4377926;32;20287;-61
2022/02/28 04:31:31;;;;;;;141.23;135.00;;;1.00;99.90;;;;;;4378024;32;20175;-61
2022/02/28 04:34:00;;;;;;;143.80;137.20;;;1.00;99.90;;;;;;4378029;32;20145;-61
2022/02/28 04:36:34;;;;;;;146.17;139.90;;;1.00;99.90;;;;;;4379654;32;20149;-61
2022/02/28 04:39:06;;;;;;;138.40;132.40;;;1.00;99.90;;;;;;4377907;32;20507;-60
2022/02/28 04:41:39;;;;;;;143.00;136.60;;;1.00;99.90;;;;;;4377215;32;20168;-61
2022/02/28 04:44:06;;;;;;;142.40;136.00;;;1.10;99.90;;;;;;4377649;32;20159;-61
2022/02/28 04:46:35;;;;;;;146.20;139.70;;;1.00;99.90;;;;;;4377609;32;20494;-61
2022/02/28 04:49:11;;;;;;;146.07;139.53;;;1.00;99.90;;;;;;4377988;32;20160;-61
2022/02/28 04:51:45;;;;;;;146.67;139.77;;;1.00;99.90;;;;;;4377764;32;20140;-61
2022/02/28 04:54:24;;;;;;;142.93;136.67;;;0.90;99.90;;;;;;4377407;32;20174;-62
2022/02/28 04:56:58;;;;;;;148.87;142.27;;;0.80;99.90;;;;;;4378003;32;20516;-62
2022/02/28 04:59:25;;;;;;;144.67;138.43;;;0.80;99.90;;;;;;4378333;32;20175;-62
2022/02/28 05:01:56;;;;;;;144.10;137.77;;;0.80;99.90;;;;;;4377368;32;20194;-61
2022/02/28 05:04:23;;;;;;;147.77;141.33;;;0.80;99.90;;;;;;4378085;32;20145;-62
2022/02/28 05:06:51;;;;;;;154.53;147.73;;;0.80;99.90;;;;;;4380215;32;20549;-62
2022/02/28 05:09:27;;;;;;;150.83;144.07;;;0.80;99.90;;;;;;4384365;32;20171;-62
2022/02/28 05:12:02;;;;;;;152.73;145.93;;;0.80;99.90;;;;;;4393177;32;20147;-61
2022/02/28 05:14:29;;;;;;;153.43;146.53;;;0.80;99.90;;;;;;4392523;32;20167;-62
2022/02/28 05:16:56;;;;;;;152.93;145.83;;;0.80;99.90;;;;;;4378285;32;20532;-61
2022/02/28 05:19:32;;;;;;;153.07;146.43;;;0.80;99.90;;;;;;4377328;32;20188;-62
2022/02/28 05:22:02;;;;;;;151.83;144.90;;;0.80;99.90;;;;;;4376608;32;20156;-60
2022/02/28 05:24:31;;;;;;;149.67;143.10;;;0.80;99.90;;;;;;4375936;32;20171;-62
2022/02/28 05:26:58;;;;;;;151.50;144.67;;;0.80;99.90;;;;;;4377152;32;20473;-60
2022/02/28 05:29:28;;;;;;;154.53;147.70;;;0.80;99.90;;;;;;4376315;32;20176;-62
2022/02/28 05:31:55;;;;;;;157.00;150.27;;;0.80;99.90;;;;;;4377298;32;20217;-61
2022/02/28 05:34:25;;;;;;;154.33;147.50;;;0.80;99.90;;;;;;4377253;32;20477;-62
2022/02/28 05:36:58;;;;;;;154.17;147.13;;;0.80;99.90;;;;;;4378089;32;20163;-65
2022/02/28 05:39:36;;;;;;;154.47;147.80;;;0.80;99.90;;;;;;4377462;32;20180;-64
2022/02/28 05:42:17;;;;;;;155.63;148.47;;;0.80;99.90;;;;;;4376261;32;20170;-62
2022/02/28 05:44:45;;;;;;;155.87;148.93;;;0.80;99.90;;;;;;4377322;32;20141;-62
2022/02/28 05:47:18;;;;;;;156.30;149.47;;;0.80;99.90;;;;;;4376981;32;20176;-63
2022/02/28 05:49:54;;;;;;;155.20;148.50;;;0.70;99.90;;;;;;4376595;32;20208;-62
2022/02/28 05:52:24;;;;;;;159.77;152.80;;;0.70;99.90;;;;;;4377443;32;20564;-62
2022/02/28 05:55:04;;;;;;;162.63;155.60;;;0.70;99.90;;;;;;4376224;32;20168;-62
2022/02/28 05:57:43;;;;;;;157.13;150.27;;;0.60;99.90;;;;;;4377433;32;20144;-64
2022/02/28 06:00:11;;;;;;;163.63;156.43;;;0.70;99.90;;;;;;4376950;32;20170;-62
2022/02/28 06:02:44;;;;;;;160.50;153.40;;;0.70;99.90;;;;;;4378423;32;20137;-64
2022/02/28 06:05:17;;;;;;;157.97;150.80;;;0.70;99.90;;;;;;4376699;32;20145;-62
2022/02/28 06:07:46;;;;;;;163.10;155.17;;;0.70;99.90;;;;;;4375981;32;20167;-63
2022/02/28 06:10:16;;;;;;;159.97;152.67;;;0.70;99.90;;;;;;4376685;32;20187;-64
2022/02/28 06:12:49;;;;;;;162.27;155.17;;;0.70;99.90;;;;;;4376680;32;20148;-63
2022/02/28 06:15:18;;;;;;;162.03;154.80;;;0.70;99.90;;;;;;4376656;32;20141;-63
2022/02/28 06:17:45;;;;;;;158.67;151.17;;;0.70;99.90;;;;;;4374615;32;20220;-63
2022/02/28 06:20:18;;;;;;;162.07;154.73;;;0.60;99.90;;;;;;4375897;32;20168;-61
2022/02/28 06:22:51;;;;;;;161.00;153.87;;;0.60;99.90;;;;;;4376014;32;20291;-63
2022/02/28 06:25:23;;;;;;;168.00;160.47;;;0.60;99.90;;;;;;4372075;32;20157;-62
2022/02/28 06:27:57;;;;;;;158.20;151.13;;;0.60;99.90;;;;;;4371869;32;20145;-61
2022/02/28 06:30:26;;;;;;;164.80;157.50;;;0.60;99.90;;;;;;4375549;32;20151;-61
2022/02/28 06:33:00;;;;;;;176.30;168.73;;;0.60;99.90;;;;;;4374355;32;20195;-62
2022/02/28 06:35:32;;;;;;;166.83;159.07;;;0.60;99.90;;;;;;4388860;32;20459;-61
2022/02/28 06:38:01;;;;;;;163.60;156.33;;;0.60;99.90;;;;;;4391611;32;20141;-61
2022/02/28 06:43:10;;;;;;;158.57;151.13;;;0.60;99.90;;;;;;4374955;32;20214;-62
2022/02/28 06:45:43;;;;;;;154.80;147.93;;;0.60;99.90;;;;;;4375491;32;20578;-63
2022/02/28 06:48:17;;;;;;;159.63;152.53;;;0.60;99.90;;;;;;4376131;32;20141;-62
2022/02/28 06:50:48;;;;;;;157.33;150.53;;;0.60;99.90;;;;;;4375278;32;20450;-60
2022/02/28 06:53:22;;;;;;;153.33;146.07;;;0.60;99.90;;;;;;4376394;32;20172;-60
2022/02/28 06:55:54;;;;;;;158.73;151.53;;;0.60;99.90;;;;;;4361977;32;20194;-61
2022/02/28 06:58:23;;;;;;;160.27;153.17;;;0.60;99.90;;;;;;4375861;32;20140;-61
2022/02/28 07:01:06;;;;;;;159.10;151.17;;;0.70;99.90;;;;;;4376072;32;20469;-60
2022/02/28 07:03:35;;;;;;;162.30;155.07;;;0.70;99.90;;;;;;4374866;32;20199;-61
2022/02/28 07:06:04;;;;;;;158.00;150.93;;;0.80;99.90;;;;;;4372025;32;20153;-61
2022/02/28 07:08:36;;;;;;;164.37;156.70;;;0.70;99.90;;;;;;4373582;32;20224;-61
2022/02/28 07:11:17;;;;;;;166.10;158.50;;;0.80;99.90;;;;;;4375501;32;20223;-61
2022/02/28 07:13:59;;;;;;;161.27;154.00;;;0.80;99.90;;;;;;4374742;32;20198;-60
2022/02/28 07:16:37;;;;;;;168.47;160.60;;;0.80;99.90;;;;;;4374053;32;20199;-62
2022/02/28 07:19:07;;;;;;;175.77;167.77;;;0.90;99.90;;;;;;4373294;32;20148;-60
2022/02/28 07:21:35;;;;;;;163.70;155.87;;;0.90;99.90;;;;;;4373907;32;20172;-63
2022/02/28 07:24:05;;;;;;;170.20;162.70;;;1.00;99.90;;;;;;4374586;32;20231;-64
2022/02/28 07:26:35;;;;;;;170.47;162.90;;;1.00;99.90;;;;;;4373528;32;20635;-60
2022/02/28 07:29:10;;;;;;;172.67;164.27;;;1.20;99.90;;;;;;4367069;32;20157;-61
2022/02/28 07:31:42;;;;;;;175.30;167.43;;;1.10;99.90;;;;;;4367450;32;20483;-61
2022/02/28 07:34:13;;;;;;;169.63;162.10;;;1.20;99.90;;;;;;4374019;32;20148;-63
2022/02/28 07:36:42;;;;;;;172.77;165.20;;;1.30;99.90;;;;;;4371689;32;20175;-63
2022/02/28 07:39:18;;;;;;;178.20;170.37;;;1.30;99.90;;;;;;4369613;32;20183;-60
2022/02/28 07:42:00;;;;;;;170.13;162.37;;;1.30;99.90;;;;;;4373173;32;20187;-63
2022/02/28 07:44:31;;;;;;;170.10;162.20;;;1.50;99.90;;;;;;4373033;32;20198;-64
2022/02/28 07:47:01;;;;;;;172.40;164.17;;;1.60;99.90;;;;;;4373382;32;20152;-61
2022/02/28 07:49:34;;;;;;;175.43;167.33;;;1.60;99.90;;;;;;4372099;32;20469;-62
2022/02/28 07:52:09;;;;;;;169.50;161.83;;;1.60;99.90;;;;;;4371246;32;20469;-62
2022/02/28 07:54:45;;;;;;;177.50;169.47;;;1.70;99.90;;;;;;4372146;32;20615;-61
2022/02/28 07:57:44;;;;;;;165.33;157.70;;;1.70;99.90;;;;;;4371847;32;20171;-60
2022/02/28 08:00:14;;;;;;;169.43;161.67;;;1.90;99.90;;;;;;4368472;32;20171;-60
2022/02/28 08:02:47;;;;;;;159.33;152.30;;;1.90;99.90;;;;;;4368150;32;20153;-60
2022/02/28 08:05:18;;;;;;;156.53;149.23;;;2.00;99.90;;;;;;4371341;32;20240;-62
2022/02/28 08:07:51;;;;;;;153.47;146.30;;;2.10;99.90;;;;;;4369561;32;20633;-62
2022/02/28 08:10:21;;;;;;;150.20;143.40;;;2.20;99.90;;;;;;4372067;32;20211;-63
2022/02/28 08:13:00;;;;;;;146.70;139.70;;;2.20;99.90;;;;;;4369568;32;20475;-60
2022/02/28 08:15:33;;;;;;;142.80;136.37;;;2.30;99.90;;;;;;4370061;32;20144;-59
2022/02/28 08:18:03;;;;;;;134.30;128.10;;;2.50;99.90;;;;;;4370873;32;20230;-61
2022/02/28 08:23:14;;;;;;;126.37;120.27;;;2.60;99.90;;;;;;4370033;32;20184;-61
2022/02/28 08:25:45;;;;;;;117.27;111.93;;;2.70;99.90;;;;;;4374660;32;20270;-60
2022/02/28 08:28:23;;;;;;;111.80;106.57;;;2.90;99.90;;;;;;4370910;32;20161;-60
2022/02/28 08:30:55;;;;;;;105.40;100.50;;;3.00;99.90;;;;;;4373400;32;20152;-61
2022/02/28 08:33:29;;;;;;;90.53;86.00;;;3.00;99.90;;;;;;4373940;32;20166;-61
2022/02/28 08:35:59;;;;;;;78.20;74.00;;;3.10;99.90;;;;;;4372174;32;20157;-61
2022/02/28 08:38:26;;;;;;;60.60;56.83;;;3.20;99.90;;;;;;4373640;32;20174;-61
2022/02/28 08:40:56;;;;;;;49.67;46.70;;;3.40;99.90;;;;;;4373607;32;20205;-61
2022/02/28 08:43:24;;;;;;;47.17;44.20;;;3.40;99.90;;;;;;4374465;32;20164;-61
2022/02/28 08:46:08;;;;;;;41.90;39.33;;;3.50;99.90;;;;;;4371345;32;20682;-62
2022/02/28 08:48:43;;;;;;;41.53;38.90;;;3.60;99.90;;;;;;4373251;32;20711;-61
2022/02/28 08:51:15;;;;;;;39.80;36.97;;;3.70;99.90;;;;;;4373270;32;20518;-61
2022/02/28 08:53:44;;;;;;;33.83;31.80;;;3.80;99.90;;;;;;4373926;32;20169;-61
2022/02/28 08:56:20;;;;;;;35.83;33.57;;;3.80;99.90;;;;;;4373143;32;20208;-61
2022/02/28 08:58:50;;;;;;;35.13;32.90;;;3.90;99.90;;;;;;4374124;32;20517;-62
2022/02/28 09:01:38;;;;;;;37.03;34.77;;;4.00;99.90;;;;;;4374276;32;20155;-62
2022/02/28 09:04:08;;;;;;;34.60;32.50;;;4.20;99.90;;;;;;4364816;32;20246;-60
2022/02/28 09:06:39;;;;;;;34.07;31.87;;;4.20;99.90;;;;;;4372686;32;20158;-60
2022/02/28 09:09:16;;;;;;;34.33;32.00;;;4.30;99.90;;;;;;4372843;32;20210;-61
2022/02/28 09:11:49;;;;;;;37.00;34.60;;;4.50;99.90;;;;;;4374500;32;20508;-61
2022/02/28 09:14:30;;;;;;;34.10;32.00;;;4.50;99.90;;;;;;4373567;32;20148;-60
2022/02/28 09:16:59;;;;;;;33.77;31.77;;;4.60;99.90;;;;;;4376621;32;20158;-61
2022/02/28 09:19:29;;;;;;;36.53;34.20;;;4.70;99.90;;;;;;4373042;32;20183;-61
2022/02/28 09:21:57;;;;;;;34.97;32.40;;;4.80;99.90;;;;;;4368517;32;20181;-61
2022/02/28 09:24:32;;;;;;;35.70;33.20;;;4.90;99.90;;;;;;4360188;32;20208;-61
2022/02/28 09:26:58;;;;;;;34.70;32.27;;;5.00;99.90;;;;;;4361673;33;20178;-61
2022/02/28 09:29:31;;;;;;;33.87;31.90;;;5.10;99.90;;;;;;4360890;33;20423;-61
2022/02/28 09:32:03;;;;;;;33.03;30.73;;;5.10;99.90;;;;;;4355034;33;20620;-61
2022/02/28 09:34:30;;;;;;;38.07;34.80;;;5.20;99.90;;;;;;4359670;33;20534;-61
2022/02/28 09:36:59;;;;;;;32.23;30.23;;;5.30;99.90;;;;;;4361661;32;20450;-61
2022/02/28 09:39:28;;;;;;;33.13;30.93;;;5.40;99.90;;;;;;4361417;33;20438;-61
2022/02/28 09:42:10;;;;;;;34.70;32.40;;;5.50;99.90;;;;;;4361893;32;20173;-61
2022/02/28 09:44:47;;;;;;;34.57;32.47;;;5.50;99.90;;;;;;4361400;32;20153;-61
2022/02/28 09:47:38;;;;;;;35.27;32.93;;;5.60;99.90;;;;;;4360000;33;20160;-61
2022/02/28 09:50:08;;;;;;;32.07;30.03;;;5.70;99.90;;;;;;4303548;33;20257;-61
2022/02/28 09:52:43;;;;;;;31.80;29.73;;;5.80;99.90;;;;;;4300189;33;20185;-61
2022/02/28 09:55:14;;;;;;;30.10;28.00;;;5.80;99.90;;;;;;4301935;33;20482;-61
2022/02/28 09:57:46;;;;;;;34.37;32.33;;;5.90;99.90;;;;;;4300186;33;20166;-61
2022/02/28 10:00:27;;;;;;;31.93;29.60;;;5.90;99.90;;;;;;4301007;33;20162;-61
2022/02/28 10:03:03;;;;;;;31.27;29.47;;;6.10;99.90;;;;;;4298878;33;20193;-61
2022/02/28 10:05:37;;;;;;;30.27;28.20;;;6.10;99.90;;;;;;4299815;33;20166;-61
2022/02/28 10:08:14;;;;;;;30.53;28.60;;;6.20;99.90;;;;;;4299930;33;20180;-61
2022/02/28 10:10:44;;;;;;;32.40;30.50;;;6.20;99.90;;;;;;4299416;33;20169;-62
2022/02/28 10:13:13;;;;;;;30.90;28.73;;;6.30;99.90;;;;;;4298110;33;20241;-62
2022/02/28 10:15:57;;;;;;;29.20;27.40;;;6.40;99.90;;;;;;4299180;33;20147;-62
2022/02/28 10:21:04;;;;;;;32.47;30.47;;;6.40;99.90;;;;;;4301201;32;1970889;-61
2022/02/28 10:23:33;;;;;;;30.10;27.93;;;6.50;99.90;;;;;;4359410;32;20167;-61
2022/02/28 10:26:03;;;;;;;33.53;31.43;;;6.50;99.90;;;;;;4363666;32;20164;-61
2022/02/28 10:28:40;;;;;;;29.87;27.97;;;6.50;99.90;;;;;;4360625;33;20145;-61
2022/02/28 10:31:32;;;;;;;28.57;26.63;;;6.70;99.40;;;;;;4360499;32;20199;-61
2022/02/28 10:33:59;;;;;;;27.77;25.97;;;6.80;99.60;;;;;;4358849;32;20137;-61
2022/02/28 10:36:36;;;;;;;30.53;28.63;;;6.80;99.30;;;;;;4360060;32;20165;-60
2022/02/28 10:39:10;;;;;;;32.93;30.87;;;6.90;99.30;;;;;;4360043;33;20202;-61
2022/02/28 10:41:45;;;;;;;30.03;28.13;;;6.90;99.20;;;;;;4347890;33;20157;-61
2022/02/28 10:44:14;;;;;;;34.93;32.77;;;7.00;99.40;;;;;;4355154;32;20207;-61
2022/02/28 10:46:50;;;;;;;33.53;31.13;;;7.00;99.60;;;;;;4361313;33;20133;-61
2022/02/28 10:49:31;;;;;;;32.27;30.40;;;7.10;98.90;;;;;;4360795;32;20136;-61
2022/02/28 10:52:07;;;;;;;34.47;32.13;;;7.20;99.20;;;;;;4361255;32;20142;-61
2022/02/28 10:54:41;;;;;;;31.93;30.10;;;7.20;99.40;;;;;;4346279;33;20507;-61
2022/02/28 10:57:16;;;;;;;32.93;30.83;;;7.20;98.90;;;;;;4360579;32;20191;-61
2022/02/28 10:59:56;;;;;;;35.87;33.70;;;7.20;99.10;;;;;;4360564;32;20158;-60
2022/02/28 11:02:28;;;;;;;30.00;28.20;;;7.30;99.30;;;;;;4356885;33;20215;-60
2022/02/28 11:05:08;;;;;;;31.13;29.03;;;7.30;98.60;;;;;;4360600;32;20181;-60
2022/02/28 11:07:59;;;;;;;32.77;30.97;;;7.40;98.50;;;;;;4360471;32;20176;-60
2022/02/28 11:10:39;;;;;;;33.33;30.37;;;7.40;98.80;;;;;;4360026;32;20180;-60
2022/02/28 11:13:10;;;;;;;30.57;28.43;;;7.40;98.70;;;;;;4355408;32;20163;-60
2022/02/28 11:15:40;;;;;;;33.63;31.53;;;7.50;98.60;;;;;;4358123;33;20151;-62
2022/02/28 11:18:16;;;;;;;34.27;31.97;;;7.50;98.80;;;;;;4358708;32;20524;-62
2022/02/28 11:20:50;;;;;;;34.73;32.73;;;7.60;98.90;;;;;;4361204;32;20568;-61
2022/02/28 11:23:20;;;;;;;36.27;33.83;;;7.60;98.70;;;;;;4360074;32;20203;-62
2022/02/28 11:25:50;;;;;;;34.17;31.83;;;7.60;99.10;;;;;;4356893;32;20153;-62
2022/02/28 11:28:21;;;;;;;33.73;31.67;;;7.60;98.70;;;;;;4357355;32;20164;-62
2022/02/28 11:31:00;;;;;;;36.67;34.37;;;7.60;98.60;;;;;;4370582;32;20569;-62
2022/02/28 11:33:49;;;;;;;34.13;32.00;;;7.60;98.50;;;;;;4364046;32;20172;-62
2022/02/28 11:36:16;;;;;;;35.90;33.70;;;7.60;98.40;;;;;;4357247;33;20145;-61
2022/02/28 11:38:54;;;;;;;34.13;31.60;;;7.70;98.40;;;;;;4359849;32;20164;-62
2022/02/28 11:41:21;;;;;;;37.83;35.43;;;7.70;98.90;;;;;;4352238;33;20548;-61
2022/02/28 11:44:03;;;;;;;40.33;37.90;;;7.80;98.90;;;;;;4358695;32;20164;-62
2022/02/28 11:46:30;;;;;;;39.70;37.03;;;7.80;98.80;;;;;;4359004;32;20149;-60
2022/02/28 11:48:59;;;;;;;38.47;36.20;;;7.80;98.90;;;;;;4359292;33;20189;-61
2022/02/28 11:51:31;;;;;;;38.97;36.73;;;7.80;98.80;;;;;;4359647;32;20456;-62
2022/02/28 11:54:00;;;;;;;44.23;41.83;;;7.90;98.20;;;;;;4358977;33;20217;-60
2022/02/28 11:56:55;;;;;;;43.20;40.80;;;7.90;98.70;;;;;;4361386;32;20168;-60
2022/02/28 11:59:28;;;;;;;38.17;35.90;;;8.00;98.60;;;;;;4360461;32;20170;-62
2022/02/28 12:02:27;;;;;;;37.60;35.30;;;8.10;98.40;;;;;;4357078;32;20134;-60
2022/02/28 12:05:04;;;;;;;34.80;32.70;;;8.10;98.10;;;;;;4355463;32;20141;-60
2022/02/28 12:07:57;;;;;;;37.10;34.93;;;8.10;97.60;;;;;;4360035;32;20173;-60
2022/02/28 12:10:45;;;;;;;37.40;35.17;;;8.00;98.00;;;;;;4355444;33;20248;-61
2022/02/28 12:13:19;;;;;;;41.13;38.53;;;8.10;97.90;;;;;;4357594;33;20191;-62
2022/02/28 12:15:49;;;;;;;42.50;39.93;;;8.20;98.10;;;;;;4357754;33;20268;-62
2022/02/28 12:18:38;;;;;;;34.80;32.67;;;8.20;97.90;;;;;;4358872;33;20291;-60
2022/02/28 12:21:16;;;;;;;35.37;33.27;;;8.20;97.80;;;;;;4361035;33;20633;-61
2022/02/28 12:23:49;;;;;;;39.53;37.23;;;8.20;97.70;;;;;;4359634;33;20165;-61
2022/02/28 12:26:18;;;;;;;37.80;35.47;;;8.10;97.80;;;;;;4359639;33;20145;-61
2022/02/28 12:28:53;;;;;;;36.00;33.93;;;8.10;98.20;;;;;;4359429;33;20160;-60
2022/02/28 12:31:49;;;;;;;39.67;37.07;;;8.10;97.50;;;;;;4360060;33;20174;-62
2022/02/28 12:34:17;;;;;;;35.73;33.63;;;8.10;97.40;;;;;;4320487;33;20622;-62
2022/02/28 12:36:48;;;;;;;39.73;37.27;;;8.20;97.70;;;;;;4328320;33;20547;-62
2022/02/28 12:39:24;;;;;;;41.27;38.67;;;8.20;97.40;;;;;;4329373;33;20204;-62
2022/02/28 12:41:56;;;;;;;37.73;35.63;;;8.20;97.40;;;;;;4332388;33;20236;-60
2022/02/28 12:44:31;;;;;;;42.77;40.33;;;8.20;97.40;;;;;;4331235;33;20149;-60
2022/02/28 12:47:05;;;;;;;39.10;36.83;;;8.20;97.60;;;;;;4331734;33;20141;-61
2022/02/28 12:49:38;;;;;;;37.30;34.97;;;8.20;97.40;;;;;;4332476;33;20141;-61
2022/02/28 12:52:20;;;;;;;37.90;35.50;;;8.30;97.40;;;;;;4332782;33;20232;-61
2022/02/28 12:54:53;;;;;;;36.07;33.97;;;8.30;97.40;;;;;;4331149;33;20158;-61
2022/02/28 12:57:25;;;;;;;35.27;33.17;;;8.30;96.70;;;;;;4320502;33;20227;-61
2022/02/28 13:00:07;;;;;;;40.23;37.67;;;8.30;96.90;;;;;;4330637;33;20169;-61
2022/02/28 13:02:34;;;;;;;37.03;34.77;;;8.40;96.90;;;;;;4331769;33;20161;-60
2022/02/28 13:05:01;;;;;;;36.90;34.70;;;8.40;96.90;;;;;;4332133;33;20189;-61
2022/02/28 13:07:32;;;;;;;37.53;35.13;;;8.40;96.50;;;;;;4331015;33;20234;-61
2022/02/28 13:10:11;;;;;;;36.53;34.13;;;8.40;96.40;;;;;;4345736;33;20665;-61